Time;durP1;ratioP1;P1;durP2;ratioP2;P2;SDS_P1;SDS_P2;PMS_P1;PMS_P2;Temp;Humidity;BMP_temperature;BMP_pressure;BME280_temperature;BME280_humidity;BME280_pressure;Samples;Min_cycle;Max_cycle;Signal;HPM_P1;HPM_P2
2024/01/29 00:00:10;;;;;;;5.40;2.90;;;7.90;94.80;;;7.60;86.36;102056.34;5245559;28;20473;-47
2024/01/29 00:02:43;;;;;;;2.45;1.73;;;7.80;94.80;;;7.58;85.99;102052.75;5241408;28;20048;-50
2024/01/29 00:05:15;;;;;;;5.55;2.60;;;7.80;94.80;;;7.58;86.55;102048.47;5245356;28;20050;-47
2024/01/29 00:07:49;;;;;;;4.80;1.85;;;7.80;94.80;;;7.54;86.32;102041.25;5242115;28;20097;-47
2024/01/29 00:10:22;;;;;;;3.33;2.08;;;7.80;94.90;;;7.54;86.40;102036.06;5245774;28;20058;-48
2024/01/29 00:12:54;;;;;;;2.75;1.95;;;7.80;95.00;;;7.55;86.75;102039.56;5242920;28;20130;-47
2024/01/29 00:15:26;;;;;;;1.92;1.60;;;7.80;94.90;;;7.54;86.90;102029.97;5240731;28;20514;-47
2024/01/29 00:17:59;;;;;;;4.57;2.40;;;7.80;95.10;;;7.51;86.86;102040.16;5241678;28;20740;-47
2024/01/29 00:20:31;;;;;;;7.40;2.55;;;7.80;95.10;;;7.48;86.90;102039.94;5240166;28;20549;-47
2024/01/29 00:23:05;;;;;;;3.80;1.83;;;7.70;95.10;;;7.47;86.87;102038.16;5241580;28;20067;-49
2024/01/29 00:25:39;;;;;;;3.10;1.80;;;7.70;95.10;;;7.45;86.97;102029.38;5258180;28;20040;-48
2024/01/29 00:28:11;;;;;;;4.00;1.77;;;7.70;95.20;;;7.46;87.31;102031.16;5238087;28;20032;-47
2024/01/29 00:30:44;;;;;;;4.10;2.10;;;7.70;95.30;;;7.42;86.89;102016.19;5240972;28;20056;-48
2024/01/29 00:33:16;;;;;;;2.50;2.05;;;7.70;95.20;;;7.41;87.13;102025.66;5241594;28;20044;-48
2024/01/29 00:35:49;;;;;;;3.70;1.67;;;7.70;95.20;;;7.40;87.02;102029.06;5243722;28;20052;-47
2024/01/29 00:38:23;;;;;;;2.70;1.77;;;7.70;95.20;;;7.40;86.87;102036.84;5241321;28;20040;-47
2024/01/29 00:40:55;;;;;;;4.82;2.05;;;7.70;95.20;;;7.39;87.35;102029.88;5250652;28;20545;-46
2024/01/29 00:43:30;;;;;;;2.30;1.63;;;7.60;95.30;;;7.34;87.32;102031.25;5248527;28;20387;-47
2024/01/29 00:46:03;;;;;;;6.68;2.85;;;7.60;95.20;;;7.33;87.28;102029.44;5246696;28;20067;-49
2024/01/29 00:48:36;;;;;;;2.60;2.00;;;7.60;95.40;;;7.33;87.52;102035.53;5241600;28;20131;-48
2024/01/29 00:51:08;;;;;;;4.95;2.95;;;7.60;95.30;;;7.33;87.25;102040.72;5246158;28;20092;-47
2024/01/29 00:53:45;;;;;;;2.83;2.08;;;7.60;95.40;;;7.34;87.23;102041.63;5250036;28;20045;-48
2024/01/29 00:56:17;;;;;;;3.75;1.60;;;7.60;95.40;;;7.31;87.45;102029.34;5251574;28;20048;-47
2024/01/29 00:58:50;;;;;;;4.43;2.00;;;7.60;95.50;;;7.33;87.76;102040.72;5255965;28;20076;-47
2024/01/29 01:01:22;;;;;;;1.73;1.60;;;7.60;95.50;;;7.29;87.46;102037.81;5251402;28;20044;-46
2024/01/29 01:03:55;;;;;;;1.52;1.42;;;7.60;95.50;;;7.26;87.41;102042.81;5243630;28;20114;-47
2024/01/29 01:06:27;;;;;;;1.95;1.63;;;7.50;95.50;;;7.27;87.06;102031.63;5246643;28;20052;-46
2024/01/29 01:09:02;;;;;;;2.55;1.45;;;7.50;95.50;;;7.24;87.70;102032.34;5251815;28;20047;-47
2024/01/29 01:11:34;;;;;;;2.80;1.63;;;7.50;95.50;;;7.24;87.54;102041.81;5246251;28;20059;-47
2024/01/29 01:14:07;;;;;;;3.67;2.10;;;7.50;95.50;;;7.25;88.09;102052.28;5249727;28;20055;-47
2024/01/29 01:16:39;;;;;;;4.53;1.75;;;7.50;95.60;;;7.26;87.76;102037.63;5245202;28;20070;-48
2024/01/29 01:19:12;;;;;;;6.97;1.95;;;7.50;95.50;;;7.25;87.71;102038.41;5251881;28;20044;-47
2024/01/29 01:21:47;;;;;;;4.45;2.22;;;7.50;95.60;;;7.23;88.06;102053.84;5252974;28;20081;-48
2024/01/29 01:24:21;;;;;;;2.55;1.77;;;7.50;95.70;;;7.22;88.25;102039.09;5250813;28;20055;-46
2024/01/29 01:26:53;;;;;;;5.82;1.58;;;7.50;95.90;;;7.26;87.51;102038.50;5241591;28;20058;-46
2024/01/29 01:29:29;;;;;;;2.90;1.52;;;7.50;95.70;;;7.27;87.94;102045.50;5247556;28;20056;-48
2024/01/29 01:32:01;;;;;;;2.40;1.67;;;7.50;95.70;;;7.25;87.57;102062.66;5248434;28;20533;-48
2024/01/29 01:34:34;;;;;;;4.72;1.60;;;7.50;95.70;;;7.26;87.49;102054.06;5248595;28;20052;-47
2024/01/29 01:37:06;;;;;;;5.13;2.25;;;7.50;95.70;;;7.26;87.46;102050.59;5249729;28;20048;-48
2024/01/29 01:39:43;;;;;;;4.90;2.00;;;7.50;95.70;;;7.27;87.60;102050.69;5246112;28;20044;-48
2024/01/29 01:42:15;;;;;;;2.67;1.77;;;7.50;95.80;;;7.28;87.98;102056.75;5262594;28;20055;-49
2024/01/29 01:44:48;;;;;;;4.03;1.30;;;7.50;95.80;;;7.33;87.85;102051.09;5250830;28;20448;-47
2024/01/29 01:47:21;;;;;;;2.30;1.90;;;7.50;95.80;;;7.32;87.76;102043.22;5247144;28;20048;-48
2024/01/29 01:49:53;;;;;;;1.90;1.48;;;7.50;95.80;;;7.34;88.14;102037.31;5249709;28;20039;-47
2024/01/29 01:52:26;;;;;;;1.75;1.63;;;7.50;95.90;;;7.34;87.38;102036.44;5249667;28;20048;-47
2024/01/29 01:55:00;;;;;;;2.97;1.63;;;7.50;95.80;;;7.31;87.67;102041.44;5246323;28;20044;-47
2024/01/29 01:57:33;;;;;;;2.20;2.00;;;7.50;95.80;;;7.33;87.36;102053.69;5241745;28;20530;-48
2024/01/29 02:00:06;;;;;;;1.75;1.50;;;7.50;95.80;;;7.32;87.72;102046.72;5252556;28;20438;-47
2024/01/29 02:02:40;;;;;;;3.97;2.10;;;7.50;95.90;;;7.30;87.93;102045.72;5252233;28;20048;-48
2024/01/29 02:05:12;;;;;;;3.03;1.70;;;7.50;95.90;;;7.31;88.25;102042.31;5258939;28;20052;-47
2024/01/29 02:07:45;;;;;;;2.13;1.48;;;7.50;95.90;;;7.31;88.27;102059.59;5239312;28;20444;-47
2024/01/29 02:10:19;;;;;;;5.82;1.90;;;7.50;96.00;;;7.28;88.04;102036.91;5250600;28;20051;-48
2024/01/29 02:12:53;;;;;;;2.42;1.70;;;7.50;96.00;;;7.28;88.43;102046.38;5245912;28;20048;-48
2024/01/29 02:15:25;;;;;;;3.92;1.85;;;7.50;96.00;;;7.27;88.06;102035.13;5235278;28;20057;-46
2024/01/29 02:17:58;;;;;;;3.97;1.70;;;7.50;96.00;;;7.28;88.24;102047.28;5247333;28;20512;-47
2024/01/29 02:20:30;;;;;;;2.38;2.08;;;7.50;96.00;;;7.31;88.35;102044.91;5249890;28;20105;-48
2024/01/29 02:23:04;;;;;;;3.40;1.77;;;7.50;96.10;;;7.30;88.45;102049.97;5247431;28;20063;-48
2024/01/29 02:25:37;;;;;;;3.38;1.58;;;7.50;96.20;;;7.28;88.88;102036.91;5246345;28;20045;-47
2024/01/29 02:28:09;;;;;;;4.97;1.75;;;7.50;96.30;;;7.27;88.54;102042.91;5246356;28;20064;-47
2024/01/29 02:30:42;;;;;;;3.75;1.63;;;7.50;96.20;;;7.28;88.84;102043.78;5242021;28;20556;-46
2024/01/29 02:33:14;;;;;;;6.45;1.88;;;7.50;96.30;;;7.28;88.77;102038.59;5244903;28;20051;-47
2024/01/29 02:35:49;;;;;;;5.63;1.70;;;7.50;96.30;;;7.28;88.57;102036.91;5242540;28;20050;-47
2024/01/29 02:38:23;;;;;;;6.47;1.73;;;7.50;96.30;;;7.27;88.77;102037.72;5243693;28;20052;-47
2024/01/29 02:40:55;;;;;;;4.47;2.13;;;7.50;96.40;;;7.24;89.09;102042.72;5245351;28;20059;-47
2024/01/29 02:43:28;;;;;;;4.03;1.58;;;7.50;96.40;;;7.24;88.75;102049.59;5261466;28;20055;-47
2024/01/29 02:46:00;;;;;;;2.00;1.48;;;7.50;96.50;;;7.22;88.76;102052.06;5248902;28;20121;-46
2024/01/29 02:48:32;;;;;;;2.30;1.45;;;7.50;96.60;;;7.23;89.48;102058.13;5249283;28;20044;-48
2024/01/29 02:51:05;;;;;;;5.00;2.00;;;7.50;96.60;;;7.23;89.62;102055.53;5246880;28;20056;-48
2024/01/29 02:53:39;;;;;;;2.92;1.60;;;7.50;96.60;;;7.25;88.92;102057.47;5246792;28;20113;-46
2024/01/29 02:56:11;;;;;;;5.78;2.05;;;7.50;96.60;;;7.23;89.40;102056.44;5247978;28;20048;-48
2024/01/29 02:58:44;;;;;;;2.15;1.73;;;7.40;96.70;;;7.22;89.58;102051.16;5245272;28;20037;-48
2024/01/29 03:01:19;;;;;;;1.77;1.38;;;7.40;96.80;;;7.20;89.81;102056.25;5241821;28;20055;-47
2024/01/29 03:03:51;;;;;;;4.00;1.33;;;7.40;96.80;;;7.16;89.54;102051.63;5244923;28;20051;-47
2024/01/29 03:06:25;;;;;;;4.50;1.50;;;7.40;96.90;;;7.17;89.88;102047.34;5248726;28;20414;-47
2024/01/29 03:08:58;;;;;;;2.47;1.80;;;7.40;97.00;;;7.13;90.28;102051.44;5242215;28;20044;-47
2024/01/29 03:11:31;;;;;;;3.42;2.25;;;7.40;96.90;;;7.14;90.08;102053.22;5245955;28;20071;-46
2024/01/29 03:14:03;;;;;;;1.83;1.17;;;7.40;97.00;;;7.10;90.49;102050.31;5247193;28;20386;-47
2024/01/29 03:16:36;;;;;;;3.10;1.80;;;7.40;97.00;;;7.12;90.04;102049.66;5245379;28;20063;-47
2024/01/29 03:19:08;;;;;;;3.67;1.65;;;7.30;97.10;;;7.13;90.46;102051.44;5254130;28;20515;-47
2024/01/29 03:21:44;;;;;;;3.05;1.83;;;7.40;97.10;;;7.13;90.46;102059.22;5236568;28;20048;-48
2024/01/29 03:24:17;;;;;;;2.72;1.50;;;7.40;97.20;;;7.15;90.58;102064.50;5239869;28;20514;-49
2024/01/29 03:26:50;;;;;;;3.25;2.00;;;7.40;97.20;;;7.14;90.55;102057.53;5241236;28;20096;-48
2024/01/29 03:29:22;;;;;;;2.28;1.80;;;7.30;97.30;;;7.14;90.37;102063.59;5242105;28;20050;-47
2024/01/29 03:31:58;;;;;;;1.77;1.60;;;7.30;97.30;;;7.13;90.62;102064.41;5257020;28;20052;-48
2024/01/29 03:34:30;;;;;;;2.40;1.88;;;7.30;97.30;;;7.13;90.85;102061.81;5239916;28;20051;-47
2024/01/29 03:37:02;;;;;;;2.95;1.83;;;7.30;97.40;;;7.09;90.64;102057.19;5244221;28;20056;-47
2024/01/29 03:39:36;;;;;;;5.03;1.58;;;7.30;97.50;;;7.05;90.90;102057.81;5242550;28;20415;-48
2024/01/29 03:42:08;;;;;;;5.32;2.05;;;7.30;97.60;;;7.01;91.05;102061.84;5245122;28;20051;-48
2024/01/29 03:44:41;;;;;;;4.97;1.90;;;7.30;97.60;;;6.96;91.30;102058.03;5247120;28;20052;-48
2024/01/29 03:47:13;;;;;;;1.90;1.42;;;7.20;97.70;;;6.97;91.33;102066.72;5242019;28;20036;-47
2024/01/29 03:49:46;;;;;;;4.07;1.75;;;7.20;97.80;;;6.95;91.66;102061.44;5255311;28;20040;-47
2024/01/29 03:52:18;;;;;;;6.13;2.00;;;7.20;97.90;;;6.95;91.60;102069.22;5239200;28;20094;-46
2024/01/29 03:54:52;;;;;;;3.17;2.00;;;7.20;98.00;;;6.93;91.98;102064.72;5245712;28;20056;-47
2024/01/29 03:57:24;;;;;;;2.13;1.45;;;7.10;98.00;;;6.90;91.69;102067.09;5243531;28;20056;-47
2024/01/29 03:59:56;;;;;;;2.15;1.60;;;7.10;98.00;;;6.89;91.81;102066.19;5247263;28;20506;-47
2024/01/29 04:02:29;;;;;;;2.83;2.20;;;7.10;98.10;;;6.88;91.84;102063.50;5246957;28;20532;-48
2024/01/29 04:05:01;;;;;;;3.15;1.38;;;7.10;98.20;;;6.81;92.15;102059.59;5242890;28;20454;-48
2024/01/29 04:07:34;;;;;;;2.05;1.77;;;7.10;98.20;;;6.79;92.78;102056.88;5247835;28;20055;-47
2024/01/29 04:10:08;;;;;;;2.97;1.77;;;7.00;98.30;;;6.78;92.91;102054.16;5246955;28;20059;-47
2024/01/29 04:12:41;;;;;;;3.25;2.15;;;7.00;98.40;;;6.78;92.35;102049.91;5247389;28;20068;-47
2024/01/29 04:15:13;;;;;;;3.38;1.67;;;7.00;98.50;;;6.77;92.73;102042.91;5242542;28;20055;-47
2024/01/29 04:17:45;;;;;;;1.63;1.52;;;7.00;98.60;;;6.76;92.98;102046.28;5244898;28;20391;-47
2024/01/29 04:20:18;;;;;;;5.22;2.28;;;7.00;98.60;;;6.76;92.96;102045.38;5242438;28;20041;-47
2024/01/29 04:22:50;;;;;;;1.70;1.60;;;7.00;98.80;;;6.70;93.47;102048.44;5240992;28;20044;-48
2024/01/29 04:25:24;;;;;;;3.47;1.95;;;6.90;98.80;;;6.70;93.36;102058.81;5244762;28;20048;-47
2024/01/29 04:28:00;;;;;;;6.45;1.80;;;6.90;98.80;;;6.71;93.59;102046.75;5244281;28;20048;-47
2024/01/29 04:30:32;;;;;;;3.13;1.58;;;6.90;98.90;;;6.73;93.22;102055.56;5233391;28;20507;-48
2024/01/29 04:33:05;;;;;;;2.55;1.63;;;6.90;98.90;;;6.70;93.62;102064.00;5243525;28;20044;-47
2024/01/29 04:35:37;;;;;;;2.08;1.45;;;6.90;98.90;;;6.70;93.29;102058.81;5245863;28;20518;-47
2024/01/29 04:38:10;;;;;;;2.60;1.65;;;6.90;99.00;;;6.68;93.52;102049.16;5246201;28;20048;-47
2024/01/29 04:40:43;;;;;;;3.25;2.25;;;6.90;99.00;;;6.67;93.83;102053.44;5246051;28;20052;-48
2024/01/29 04:43:16;;;;;;;4.32;2.15;;;6.90;99.00;;;6.68;93.94;102055.22;5236332;28;20048;-46
2024/01/29 04:45:48;;;;;;;3.08;1.80;;;6.90;99.10;;;6.65;93.86;102055.03;5241168;28;20118;-47
2024/01/29 04:48:21;;;;;;;2.33;2.10;;;6.90;99.20;;;6.65;93.81;102049.84;5247817;28;20517;-47
2024/01/29 04:50:53;;;;;;;3.03;1.75;;;6.90;99.20;;;6.63;94.18;102051.41;5242903;28;20657;-47
2024/01/29 04:53:25;;;;;;;4.43;1.80;;;6.90;99.30;;;6.64;94.57;102060.97;5243457;28;20071;-48
2024/01/29 04:55:59;;;;;;;1.75;1.52;;;6.90;99.30;;;6.63;94.17;102056.59;5242048;28;20060;-47
2024/01/29 04:58:32;;;;;;;2.28;1.75;;;6.90;99.40;;;6.60;93.84;102055.50;5243560;28;20510;-47
2024/01/29 05:01:04;;;;;;;6.10;1.95;;;6.80;99.40;;;6.60;94.51;102056.38;5242312;28;20757;-47
2024/01/29 05:03:37;;;;;;;3.45;2.20;;;6.80;99.50;;;6.58;94.57;102063.13;5238355;28;20053;-47
2024/01/29 05:06:10;;;;;;;3.42;1.92;;;6.80;99.60;;;6.58;94.36;102063.13;5241379;28;20052;-47
2024/01/29 05:08:43;;;;;;;2.97;2.03;;;6.80;99.60;;;6.57;94.66;102071.69;5243486;28;20048;-48
2024/01/29 05:11:17;;;;;;;2.95;1.63;;;6.80;99.70;;;6.57;94.74;102069.09;5240212;28;20059;-47
2024/01/29 05:13:49;;;;;;;3.03;1.73;;;6.80;99.70;;;6.57;94.83;102071.69;5244052;28;20055;-47
2024/01/29 05:16:22;;;;;;;2.00;1.75;;;6.80;99.90;;;6.56;94.71;102069.00;5203518;28;20039;-47
2024/01/29 05:18:55;;;;;;;5.78;2.05;;;6.70;99.90;;;6.54;94.72;102074.09;5236022;28;20526;-47
2024/01/29 05:21:27;;;;;;;7.95;2.22;;;6.70;99.90;;;6.52;95.55;102081.75;5237376;28;20066;-49
2024/01/29 05:23:59;;;;;;;5.30;2.20;;;6.70;99.90;;;6.50;95.18;102061.69;5238476;28;20782;-47
2024/01/29 05:26:33;;;;;;;2.50;1.90;;;6.70;99.90;;;6.49;95.23;102063.38;5243999;28;20059;-47
2024/01/29 05:29:06;;;;;;;2.10;1.90;;;6.70;99.90;;;6.48;95.53;102069.38;5257448;28;20368;-48
2024/01/29 05:31:38;;;;;;;3.55;2.10;;;6.70;99.90;;;6.50;95.51;102075.53;5237176;28;20498;-46
2024/01/29 05:34:10;;;;;;;6.60;2.13;;;6.70;99.90;;;6.49;95.83;102072.84;5246779;28;20048;-46
2024/01/29 05:36:43;;;;;;;4.65;1.98;;;6.70;99.90;;;6.50;95.82;102080.72;5236490;28;20056;-47
2024/01/29 05:39:15;;;;;;;3.78;2.30;;;6.70;99.90;;;6.48;95.70;102076.25;5242687;28;20039;-47
2024/01/29 05:41:49;;;;;;;4.45;2.53;;;6.70;99.90;;;6.44;96.07;102079.38;5244231;28;20040;-46
2024/01/29 05:44:21;;;;;;;6.63;3.67;;;6.70;99.90;;;6.43;96.15;102078.50;5237590;28;20306;-47
2024/01/29 05:46:53;;;;;;;6.85;4.32;;;6.60;99.90;;;6.43;96.18;102083.66;5239723;28;20055;-48
2024/01/29 05:49:26;;;;;;;5.30;3.17;;;6.70;99.90;;;6.43;96.46;102090.53;5241289;28;20052;-47
2024/01/29 05:51:58;;;;;;;2.83;2.60;;;6.70;99.90;;;6.38;97.17;102090.19;5231124;28;20048;-48
2024/01/29 05:54:30;;;;;;;4.97;3.50;;;6.60;99.90;;;6.35;96.73;102095.19;5241073;28;20048;-47
2024/01/29 05:57:06;;;;;;;3.80;2.65;;;6.60;99.90;;;6.33;97.16;102095.88;5242243;28;20502;-47
2024/01/29 05:59:40;;;;;;;7.93;4.70;;;6.60;99.90;;;6.30;97.23;102093.03;5228564;28;20044;-46
2024/01/29 06:02:12;;;;;;;11.15;4.30;;;6.60;99.90;;;6.28;97.36;102087.75;5247946;28;20060;-48
2024/01/29 06:04:45;;;;;;;26.65;13.85;;;6.50;99.90;;;6.25;97.29;102090.09;5230310;28;20441;-47
2024/01/29 06:07:17;;;;;;;6.85;3.78;;;6.50;99.90;;;6.20;97.94;102084.63;5230839;28;20040;-47
2024/01/29 06:09:49;;;;;;;3.55;2.88;;;6.50;99.90;;;6.16;98.12;102092.03;5236909;28;20040;-46
2024/01/29 06:12:23;;;;;;;2.58;2.28;;;6.50;99.90;;;6.17;98.35;102088.66;5243198;28;20044;-47
2024/01/29 06:14:56;;;;;;;2.60;2.25;;;6.40;99.90;;;6.15;98.18;102091.16;5235947;28;20380;-46
2024/01/29 06:17:28;;;;;;;9.45;2.30;;;6.40;99.90;;;6.15;98.59;102091.16;5242749;28;20059;-46
2024/01/29 06:20:04;;;;;;;3.97;2.85;;;6.40;99.90;;;6.15;98.54;102098.91;5240900;28;20073;-46
2024/01/29 06:22:37;;;;;;;3.45;2.00;;;6.40;99.90;;;6.14;98.64;102110.06;5233083;28;20415;-46
2024/01/29 06:25:09;;;;;;;4.22;3.05;;;6.40;99.90;;;6.14;98.88;102115.25;5232419;28;20048;-45
2024/01/29 06:27:43;;;;;;;4.15;2.40;;;6.40;99.90;;;6.11;99.07;102103.75;5246257;28;20047;-47
2024/01/29 06:30:16;;;;;;;5.75;2.67;;;6.40;99.90;;;6.08;99.05;102114.78;5235937;28;20035;-47
2024/01/29 06:32:48;;;;;;;5.10;2.53;;;6.30;99.90;;;6.07;99.46;102118.16;5237555;28;20057;-46
2024/01/29 06:35:23;;;;;;;4.18;1.67;;;6.30;99.90;;;6.03;99.65;102115.22;5236919;28;20047;-46
2024/01/29 06:37:55;;;;;;;2.90;2.63;;;6.30;99.90;;;6.05;99.80;102116.22;5240796;28;20551;-46
2024/01/29 06:40:28;;;;;;;5.53;2.35;;;6.30;99.90;;;6.06;99.61;102116.34;5241131;28;20044;-48
2024/01/29 06:43:01;;;;;;;3.47;2.13;;;6.30;99.90;;;6.04;100.00;102109.25;5228249;28;20067;-46
2024/01/29 06:45:35;;;;;;;8.35;2.28;;;6.30;99.90;;;6.01;99.85;102111.63;5242578;28;20044;-47
2024/01/29 06:48:08;;;;;;;2.58;2.10;;;6.30;99.90;;;6.02;100.00;102108.25;5241051;28;20135;-46
2024/01/29 06:50:40;;;;;;;3.47;1.95;;;6.20;99.90;;;6.00;100.00;102115.91;5244827;28;20049;-47
2024/01/29 06:53:13;;;;;;;4.93;2.53;;;6.20;99.90;;;5.99;100.00;102127.94;5241144;28;20224;-47
2024/01/29 06:55:46;;;;;;;2.38;1.83;;;6.20;99.90;;;5.99;100.00;102124.44;5236124;28;20040;-46
2024/01/29 06:58:19;;;;;;;3.88;2.22;;;6.20;99.90;;;6.00;100.00;102131.44;5236732;28;20056;-46
2024/01/29 07:00:54;;;;;;;2.65;1.90;;;6.20;99.90;;;5.97;100.00;102131.19;5233223;28;20047;-46
2024/01/29 07:03:27;;;;;;;4.32;2.30;;;6.20;99.90;;;5.97;100.00;102146.75;5240064;28;20134;-48
2024/01/29 07:05:59;;;;;;;3.22;2.55;;;6.20;99.90;;;5.97;100.00;102138.97;5227615;28;20502;-46
2024/01/29 07:08:31;;;;;;;5.78;2.35;;;6.20;99.90;;;5.95;100.00;102140.56;5239690;28;20040;-46
2024/01/29 07:11:04;;;;;;;1.90;1.80;;;6.20;99.90;;;5.90;100.00;102131.50;5242127;28;20074;-46
2024/01/29 07:13:38;;;;;;;4.47;2.90;;;6.10;99.90;;;5.88;100.00;102130.50;5242304;28;20059;-46
2024/01/29 07:16:10;;;;;;;3.13;1.90;;;6.10;99.90;;;5.88;100.00;102140.84;5231389;28;20043;-47
2024/01/29 07:18:43;;;;;;;5.57;2.08;;;6.10;99.90;;;5.87;100.00;102139.06;5242127;28;20049;-46
2024/01/29 07:21:15;;;;;;;12.80;2.25;;;6.10;99.90;;;5.87;100.00;102139.94;5234353;28;20045;-47
2024/01/29 07:23:48;;;;;;;4.88;1.67;;;6.10;99.90;;;5.88;100.00;102135.69;5245889;28;20044;-46
2024/01/29 07:26:20;;;;;;;3.80;2.20;;;6.10;99.90;;;5.85;100.00;102143.19;5241812;28;20048;-45
2024/01/29 07:28:54;;;;;;;2.45;1.85;;;6.10;99.90;;;5.85;100.00;102140.59;5247659;28;20066;-46
2024/01/29 07:31:26;;;;;;;8.02;2.80;;;6.10;99.90;;;5.86;100.00;102143.28;5243783;28;20055;-46
2024/01/29 07:33:59;;;;;;;4.40;2.35;;;6.10;99.90;;;5.90;100.00;102137.56;5247791;28;20411;-47
2024/01/29 07:36:31;;;;;;;5.18;2.45;;;6.10;99.90;;;5.91;100.00;102143.69;5243906;28;20055;-45
2024/01/29 07:39:04;;;;;;;2.22;1.92;;;6.10;99.90;;;5.91;100.00;102133.34;5231913;28;20507;-47
2024/01/29 07:41:37;;;;;;;3.97;2.53;;;6.10;99.90;;;5.94;100.00;102137.06;5230824;28;20059;-46
2024/01/29 07:44:11;;;;;;;4.72;2.03;;;6.10;99.90;;;5.96;100.00;102132.91;5241312;28;20047;-47
2024/01/29 07:46:43;;;;;;;3.47;2.17;;;6.20;99.90;;;5.95;100.00;102133.69;5238888;28;20391;-46
2024/01/29 07:49:16;;;;;;;5.82;2.50;;;6.20;99.90;;;5.97;100.00;102136.38;5236242;28;20430;-45
2024/01/29 07:51:48;;;;;;;5.70;2.38;;;6.20;99.90;;;5.95;100.00;102143.13;5249382;28;20048;-49
2024/01/29 07:54:20;;;;;;;5.03;2.33;;;6.20;99.90;;;5.99;100.00;102150.31;5243461;28;20394;-46
2024/01/29 07:56:53;;;;;;;4.72;3.00;;;6.20;99.90;;;6.02;100.00;102153.16;5235192;28;20040;-46
2024/01/29 07:59:27;;;;;;;3.53;2.90;;;6.30;99.90;;;6.02;100.00;102148.00;5241294;28;20044;-45
2024/01/29 08:01:59;;;;;;;4.63;2.58;;;6.30;99.90;;;6.01;100.00;102148.78;5239744;28;20044;-47
2024/01/29 08:04:32;;;;;;;4.45;2.45;;;6.30;99.90;;;6.04;100.00;102146.41;5231479;28;20044;-46
2024/01/29 08:07:04;;;;;;;5.38;3.28;;;6.30;99.90;;;6.09;100.00;102151.94;5235316;28;20134;-46
2024/01/29 08:09:39;;;;;;;8.02;3.08;;;6.30;99.90;;;6.13;100.00;102143.59;5242420;28;20056;-46
2024/01/29 08:12:11;;;;;;;3.50;2.45;;;6.30;99.90;;;6.15;100.00;102147.22;5233800;28;20506;-47
2024/01/29 08:14:45;;;;;;;4.22;2.75;;;6.40;99.90;;;6.19;100.00;102152.75;5238003;28;20052;-46
2024/01/29 08:17:17;;;;;;;3.28;2.08;;;6.40;99.90;;;6.25;100.00;102154.84;5243933;28;20101;-46
2024/01/29 08:19:50;;;;;;;6.28;3.20;;;6.40;99.90;;;6.31;100.00;102160.47;5242689;28;20048;-47
2024/01/29 08:22:22;;;;;;;3.97;3.42;;;6.50;99.90;;;6.35;100.00;102166.81;5228871;28;20043;-48
2024/01/29 08:24:54;;;;;;;6.03;3.05;;;6.50;99.90;;;6.41;100.00;102167.25;5231512;28;20048;-46
2024/01/29 08:27:29;;;;;;;7.68;2.70;;;6.60;99.90;;;6.47;100.00;102167.69;5237737;28;20102;-46
2024/01/29 08:30:03;;;;;;;4.82;2.30;;;6.60;99.90;;;6.57;100.00;102175.34;5245228;28;20044;-47
2024/01/29 08:32:35;;;;;;;8.60;4.22;;;6.70;99.90;;;6.61;100.00;102160.94;5241453;28;20127;-46
2024/01/29 08:35:09;;;;;;;8.38;3.63;;;6.70;99.90;;;6.62;100.00;102162.72;5235972;28;20047;-48
2024/01/29 08:37:41;;;;;;;4.15;2.90;;;6.80;99.90;;;6.63;100.00;102167.13;5230017;28;20052;-47
2024/01/29 08:40:14;;;;;;;3.35;2.45;;;6.80;99.90;;;6.66;100.00;102160.47;5233717;28;20045;-46
2024/01/29 08:42:47;;;;;;;5.95;2.70;;;6.80;99.90;;;6.71;100.00;102165.97;5234802;28;20048;-47
2024/01/29 08:45:21;;;;;;;6.10;2.60;;;6.90;99.90;;;6.77;100.00;102167.31;5229728;28;20056;-46
2024/01/29 08:47:53;;;;;;;5.60;2.70;;;6.90;99.90;;;6.84;100.00;102172.94;5236181;28;20051;-47
2024/01/29 08:50:26;;;;;;;6.97;2.67;;;7.00;99.90;;;6.91;100.00;102172.56;5231126;28;20056;-47
2024/01/29 08:52:58;;;;;;;6.13;4.00;;;7.00;99.90;;;6.95;100.00;102172.03;5235644;28;20040;-46
2024/01/29 08:55:32;;;;;;;5.45;2.63;;;7.10;99.90;;;7.03;100.00;102176.94;5242187;28;20552;-47
2024/01/29 08:58:04;;;;;;;7.05;4.00;;;7.20;99.90;;;7.13;100.00;102178.50;5227573;28;20585;-45
2024/01/29 09:00:38;;;;;;;11.23;5.25;;;7.20;99.90;;;7.16;100.00;102167.44;5236284;28;20539;-46
2024/01/29 09:03:10;;;;;;;9.77;3.40;;;7.30;99.90;;;7.23;100.00;102173.16;5234484;28;20063;-46
2024/01/29 09:05:43;;;;;;;5.45;2.90;;;7.40;99.90;;;7.30;99.79;102175.41;5242152;28;20041;-45
2024/01/29 09:08:15;;;;;;;5.35;2.85;;;7.40;99.90;;;7.38;100.00;102172.44;5237098;28;20491;-48
2024/01/29 09:10:48;;;;;;;7.30;3.05;;;7.40;99.90;;;7.45;99.79;102172.09;5245748;28;20098;-47
2024/01/29 09:13:20;;;;;;;3.78;2.42;;;7.50;99.90;;;7.54;99.41;102180.50;5232423;28;20075;-48
2024/01/29 09:15:54;;;;;;;4.15;2.63;;;7.60;99.90;;;7.68;99.24;102179.72;5242270;28;20052;-45
2024/01/29 09:18:26;;;;;;;4.13;2.55;;;7.70;99.90;;;7.87;98.90;102177.59;5234709;28;20044;-46
2024/01/29 09:20:58;;;;;;;6.25;3.20;;;7.90;99.90;;;8.04;97.81;102172.66;5250549;28;20044;-46
2024/01/29 09:23:31;;;;;;;4.50;2.33;;;8.00;99.90;;;8.17;97.27;102170.06;5234952;28;20067;-46
2024/01/29 09:26:03;;;;;;;4.95;2.63;;;8.20;99.90;;;8.26;96.52;102169.75;5238454;28;20060;-47
2024/01/29 09:28:37;;;;;;;6.20;3.53;;;8.30;99.90;;;8.33;96.37;102180.66;5243316;28;20043;-47
2024/01/29 09:31:11;;;;;;;5.63;3.42;;;8.40;99.90;;;8.49;96.28;102172.22;5237822;28;20140;-46
2024/01/29 09:33:44;;;;;;;4.22;2.85;;;8.50;99.90;;;8.56;95.76;102171.81;5240898;28;20052;-46
2024/01/29 09:36:17;;;;;;;6.88;3.13;;;8.60;99.90;;;8.60;95.64;102175.47;5240805;28;20502;-46
2024/01/29 09:38:49;;;;;;;7.43;3.90;;;8.70;99.90;;;8.72;95.80;102177.97;5243203;28;20052;-46
2024/01/29 09:41:22;;;;;;;5.45;2.83;;;8.70;99.90;;;8.79;95.57;102173.25;5241468;28;20048;-46
2024/01/29 09:43:57;;;;;;;9.77;3.88;;;8.80;99.90;;;8.89;95.33;102177.38;5231758;28;20047;-46
2024/01/29 09:46:31;;;;;;;7.55;3.15;;;8.90;99.90;;;9.01;95.09;102180.75;5246265;28;20072;-46
2024/01/29 09:49:04;;;;;;;4.93;2.75;;;8.90;99.90;;;9.07;94.87;102182.84;5238906;28;20056;-46
2024/01/29 09:51:36;;;;;;;6.03;3.63;;;9.00;99.90;;;9.14;94.54;102175.50;5252182;28;20049;-47
2024/01/29 09:54:11;;;;;;;7.70;3.20;;;9.10;99.90;;;9.28;94.55;102180.66;5245850;28;20453;-48
2024/01/29 09:56:46;;;;;;;5.63;2.63;;;9.20;99.90;;;9.46;94.13;102177.50;5239685;28;20040;-48
2024/01/29 09:59:19;;;;;;;7.65;3.92;;;9.30;99.90;;;9.67;93.43;102177.91;5232095;28;20053;-46
2024/01/29 10:01:53;;;;;;;4.05;2.42;;;9.50;99.90;;;9.97;93.00;102186.63;5235348;28;20036;-46
2024/01/29 10:04:28;;;;;;;7.97;3.47;;;9.70;99.90;;;10.16;91.75;102178.19;5242236;28;20051;-47
2024/01/29 10:07:01;;;;;;;8.93;3.10;;;9.90;99.90;;;10.38;91.41;102188.19;5242854;28;20511;-47
2024/01/29 10:09:33;;;;;;;3.53;2.38;;;10.10;99.90;;;10.64;91.16;102186.19;5235357;28;20048;-46
2024/01/29 10:12:07;;;;;;;5.65;2.95;;;10.30;99.90;;;10.83;90.26;102183.78;5236380;28;20048;-46
2024/01/29 10:14:42;;;;;;;5.72;2.67;;;10.50;99.90;;;10.92;89.17;102184.28;5234248;28;20506;-47
2024/01/29 10:17:16;;;;;;;7.80;3.15;;;10.70;99.40;;;10.93;89.15;102182.56;5246763;28;20058;-46
2024/01/29 10:19:48;;;;;;;5.95;2.90;;;10.70;99.10;;;10.98;88.48;102187.25;5242885;28;20054;-47
2024/01/29 10:22:26;;;;;;;10.98;2.92;;;10.80;99.00;;;10.89;88.51;102181.53;5240266;28;20044;-46
2024/01/29 10:25:02;;;;;;;6.43;2.70;;;10.80;98.60;;;11.37;95.67;102183.28;5248863;28;20101;-50
2024/01/29 10:27:35;;;;;;;7.38;2.85;;;11.10;99.90;;;11.45;87.78;102178.47;5237258;28;20072;-48
2024/01/29 10:30:08;;;;;;;7.55;3.08;;;11.30;98.50;;;11.36;86.97;102185.81;5237145;28;20052;-45
2024/01/29 10:32:42;;;;;;;4.15;2.53;;;11.30;97.90;;;11.30;87.20;102185.50;5230687;28;20044;-49
2024/01/29 10:35:15;;;;;;;6.78;2.65;;;11.30;97.80;;;11.17;86.78;102180.41;5245535;28;20055;-46
2024/01/29 10:37:48;;;;;;;6.45;3.00;;;11.20;97.50;;;11.11;87.29;102181.88;5237343;28;20135;-47
2024/01/29 10:40:22;;;;;;;3.83;3.03;;;11.10;97.70;;;11.13;87.96;102175.00;5245055;28;20043;-47
2024/01/29 10:43:00;;;;;;;5.75;2.80;;;11.10;98.00;;;11.17;88.00;102180.41;5242202;28;20126;-48
2024/01/29 10:45:38;;;;;;;5.60;2.85;;;11.10;98.00;;;11.21;88.16;102177.13;5236699;28;20166;-49